Time;durP1;ratioP1;P1;durP2;ratioP2;P2;SDS_P1;SDS_P2;PMS_P1;PMS_P2;Temp;Humidity;BMP_temperature;BMP_pressure;BME280_temperature;BME280_humidity;BME280_pressure;Samples;Min_cycle;Max_cycle;Signal;HPM_P1;HPM_P2
2024/04/06 00:03:48;;;;;;;3.60;2.30;;;;;;;14.29;73.09;98581.77;227123;1271;26017;-81
2024/04/06 00:08:54;;;;;;;3.60;1.80;;;;;;;14.41;73.00;98596.17;227151;1270;22519;-82
2024/04/06 00:13:56;;;;;;;3.60;1.90;;;;;;;14.55;73.44;98594.31;227152;1270;24219;-81
2024/04/06 00:18:58;;;;;;;4.30;1.60;;;;;;;14.69;73.35;98601.25;227339;1272;22551;-82
2024/04/06 00:24:00;;;;;;;1.80;1.40;;;;;;;14.82;73.04;98608.79;227106;1272;22537;-82
2024/04/06 00:29:02;;;;;;;2.90;1.40;;;;;;;14.96;72.76;98609.52;227128;1272;22538;-81
2024/04/06 00:34:04;;;;;;;2.00;1.40;;;;;;;15.06;72.18;98609.33;227403;1267;24900;-82
2024/04/06 00:39:06;;;;;;;2.60;1.60;;;;;;;15.13;71.83;98607.65;227401;1270;22572;-82
2024/04/06 00:44:09;;;;;;;1.80;1.30;;;;;;;15.16;71.85;98615.96;227320;1270;24273;-81
2024/04/06 00:49:11;;;;;;;2.20;1.40;;;;;;;15.14;71.55;98617.63;227270;1251;22576;-81
2024/04/06 00:54:13;;;;;;;1.40;1.30;;;;;;;15.11;71.58;98627.18;227098;1270;22550;-81
2024/04/06 00:59:17;;;;;;;2.80;1.80;;;;;;;15.08;71.49;98628.10;227151;1267;22550;-81
2024/04/06 01:04:19;;;;;;;1.20;0.90;;;;;;;15.07;71.47;98626.67;227102;1267;25342;-82
2024/04/06 01:09:22;;;;;;;1.50;1.20;;;;;;;15.03;71.50;98623.02;227386;1267;22576;-82
2024/04/06 01:14:24;;;;;;;3.00;1.30;;;;;;;14.98;71.46;98625.71;227271;1272;22536;-82
2024/04/06 01:19:26;;;;;;;1.40;1.30;;;;;;;14.94;71.50;98631.77;226904;1271;330303;-82
2024/04/06 01:24:29;;;;;;;1.40;1.30;;;;;;;14.90;71.38;98642.69;227278;1272;23044;-82
2024/04/06 01:29:35;;;;;;;2.60;1.30;;;;;;;14.84;71.75;98643.27;227233;1271;22548;-82
2024/04/06 01:34:36;;;;;;;2.90;1.30;;;;;;;14.81;71.67;98647.77;227151;1267;23758;-82
2024/04/06 01:39:40;;;;;;;2.20;1.30;;;;;;;14.79;71.87;98658.22;227057;1258;22566;-82
2024/04/06 01:44:42;;;;;;;1.00;1.00;;;;;;;14.78;71.70;98671.60;227323;1264;22646;-82
2024/04/06 01:49:44;;;;;;;2.90;1.20;;;;;;;14.77;71.98;98676.55;227223;1272;22629;-82
2024/04/06 01:54:46;;;;;;;1.70;1.20;;;;;;;14.74;71.80;98673.52;227069;1272;22533;-82
2024/04/06 01:59:48;;;;;;;2.20;1.40;;;;;;;14.73;71.89;98673.72;227311;1267;24898;-81
2024/04/06 02:04:50;;;;;;;2.30;1.30;;;;;;;14.72;71.99;98678.10;227326;1270;22531;-82
2024/04/06 02:09:52;;;;;;;1.40;1.10;;;;;;;14.72;72.07;98684.57;227107;1270;22547;-83
2024/04/06 02:14:54;;;;;;;2.00;1.30;;;;;;;14.73;72.03;98684.92;227081;1272;22532;-82
2024/04/06 02:19:56;;;;;;;1.90;1.20;;;;;;;14.76;71.72;98699.64;227055;1272;22610;-81
2024/04/06 02:24:58;;;;;;;1.40;1.00;;;;;;;14.82;71.92;98709.59;227165;1272;22541;-82
2024/04/06 02:30:00;;;;;;;1.50;0.90;;;;;;;14.93;71.72;98716.70;227117;1270;22559;-82
2024/04/06 02:35:02;;;;;;;3.10;1.50;;;;;;;15.09;71.61;98731.84;227374;1269;22546;-82
2024/04/06 02:40:06;;;;;;;1.70;1.20;;;;;;;15.23;71.27;98737.73;227254;1272;22520;-82
2024/04/06 02:45:08;;;;;;;1.70;1.20;;;;;;;15.33;71.08;98745.70;227154;1272;22732;-82
2024/04/06 02:50:10;;;;;;;2.30;1.40;;;;;;;15.35;70.78;98753.74;227207;1272;22532;-82
2024/04/06 02:55:13;;;;;;;1.60;1.30;;;;;;;15.36;70.86;98763.23;227358;1270;22535;-82
2024/04/06 03:00:15;;;;;;;3.50;1.50;;;;;;;15.34;70.78;98755.89;227213;1272;22571;-82
2024/04/06 03:05:18;;;;;;;2.50;1.40;;;;;;;15.31;70.79;98751.23;227183;1271;25434;-82
2024/04/06 03:10:20;;;;;;;1.80;1.30;;;;;;;15.26;70.77;98749.30;227203;1272;25417;-82
2024/04/06 03:15:23;;;;;;;1.90;1.30;;;;;;;15.19;70.65;98751.32;227212;1267;22665;-82
2024/04/06 03:20:25;;;;;;;2.20;1.30;;;;;;;15.10;70.97;98763.35;227207;1272;25434;-81
2024/04/06 03:25:28;;;;;;;3.90;1.50;;;;;;;15.02;70.94;98776.42;227235;1272;22540;-81
2024/04/06 03:30:30;;;;;;;3.20;1.40;;;;;;;14.96;71.03;98787.83;227105;1272;22542;-81
2024/04/06 03:35:32;;;;;;;3.40;1.90;;;;;;;14.90;71.04;98788.75;227107;1270;22535;-82
2024/04/06 03:40:35;;;;;;;2.30;1.30;;;;;;;14.85;70.99;98788.25;227175;1269;23162;-81
2024/04/06 03:45:36;;;;;;;1.70;1.50;;;;;;;14.78;70.60;98790.23;227140;1270;22477;-81
2024/04/06 03:50:39;;;;;;;3.60;1.30;;;;;;;14.75;70.38;98789.30;227275;1267;22536;-81
2024/04/06 03:55:41;;;;;;;2.60;1.10;;;;;;;14.74;69.95;98798.27;227261;1272;22604;-81
2024/04/06 04:00:43;;;;;;;2.50;1.20;;;;;;;14.74;69.86;98802.77;227392;1270;25399;-81
2024/04/06 04:05:45;;;;;;;2.70;1.40;;;;;;;14.74;69.75;98815.17;227170;1272;22562;-82
2024/04/06 04:10:47;;;;;;;2.50;1.50;;;;;;;14.70;69.70;98828.24;227170;1267;22635;-81
2024/04/06 04:15:49;;;;;;;3.10;1.50;;;;;;;14.66;69.65;98833.97;227202;1271;22536;-81
2024/04/06 04:20:51;;;;;;;2.10;1.20;;;;;;;14.62;69.76;98840.81;227364;1270;22555;-82
2024/04/06 04:25:53;;;;;;;1.30;0.90;;;;;;;14.58;69.68;98845.77;227097;1272;22529;-82
2024/04/06 04:30:55;;;;;;;1.90;1.10;;;;;;;14.53;69.72;98850.59;227068;1269;22526;-81
2024/04/06 04:35:57;;;;;;;1.70;1.20;;;;;;;14.46;69.74;98846.08;227083;1267;22531;-81
2024/04/06 04:40:59;;;;;;;2.10;1.00;;;;;;;14.40;69.63;98848.74;227382;1266;22543;-82
2024/04/06 04:46:01;;;;;;;2.30;1.00;;;;;;;14.36;69.81;98854.96;227113;1272;24203;-81
2024/04/06 04:51:03;;;;;;;2.50;1.00;;;;;;;14.31;69.93;98871.62;227110;1265;25448;-82
2024/04/06 04:56:05;;;;;;;1.40;1.00;;;;;;;14.25;69.98;98871.92;227223;1266;22560;-81
2024/04/06 05:01:07;;;;;;;1.90;0.80;;;;;;;14.21;69.96;98863.81;227098;1269;22592;-81
2024/04/06 05:06:09;;;;;;;3.70;1.20;;;;;;;14.18;70.14;98871.63;227111;1267;22537;-82
2024/04/06 05:11:11;;;;;;;2.50;0.90;;;;;;;14.16;70.13;98879.55;227228;1270;25224;-82
2024/04/06 05:16:13;;;;;;;1.10;0.90;;;;;;;14.14;70.38;98885.77;227198;1272;22486;-81
2024/04/06 05:21:15;;;;;;;1.30;1.00;;;;;;;14.16;70.45;98888.76;227183;1269;23367;-81
2024/04/06 05:26:17;;;;;;;2.70;1.10;;;;;;;14.19;70.67;98887.86;227359;1269;24251;-83
2024/04/06 05:31:19;;;;;;;1.20;1.10;;;;;;;14.24;70.79;98891.92;227216;1270;22571;-82
2024/04/06 05:36:21;;;;;;;4.60;1.40;;;;;;;14.29;70.72;98898.29;227342;1270;23338;-81
2024/04/06 05:41:22;;;;;;;3.90;1.60;;;;;;;14.31;70.54;98905.31;227173;1269;22549;-82
2024/04/06 05:46:24;;;;;;;5.30;1.90;;;;;;;14.37;70.90;98911.11;227145;1270;22543;-82
2024/04/06 05:51:28;;;;;;;3.30;1.50;;;;;;;14.46;70.80;98919.41;227124;1267;22564;-82
2024/04/06 05:56:29;;;;;;;4.80;1.40;;;;;;;14.52;70.74;98921.36;227157;1269;22538;-82
2024/04/06 06:01:32;;;;;;;4.20;1.40;;;;;;;14.60;70.73;98923.13;227162;1272;26041;-82
2024/04/06 06:06:34;;;;;;;4.90;2.00;;;;;;;14.70;70.75;98922.60;227165;1270;22647;-82
2024/04/06 06:11:36;;;;;;;2.90;1.70;;;;;;;14.86;70.64;98920.09;227396;1269;22533;-82
2024/04/06 06:16:38;;;;;;;3.40;1.60;;;;;;;15.02;70.10;98925.70;227233;1270;22550;-82
2024/04/06 06:21:39;;;;;;;2.90;1.90;;;;;;;15.18;70.12;98928.38;227171;1266;22666;-81
2024/04/06 06:26:46;;;;;;;4.20;2.00;;;;;;;15.37;70.03;98926.13;227159;1272;22501;-82
2024/04/06 06:31:47;;;;;;;3.80;1.80;;;;;;;15.53;69.67;98926.12;227253;1269;22531;-82
2024/04/06 06:36:49;;;;;;;3.50;1.90;;;;;;;15.70;69.67;98929.84;226920;1270;22724;-82
2024/04/06 06:41:54;;;;;;;5.20;2.10;;;;;;;15.86;69.54;98929.52;226867;1272;22657;-81
2024/04/06 06:46:56;;;;;;;1.80;1.60;;;;;;;16.01;69.08;98928.00;226831;1257;22560;-81
2024/04/06 06:51:58;;;;;;;3.80;1.70;;;;;;;16.11;68.71;98928.91;226552;1253;22539;-81
2024/04/06 06:57:00;;;;;;;1.70;1.50;;;;;;;16.28;68.95;98937.86;226771;1266;22753;-80
2024/04/06 07:02:02;;;;;;;2.90;1.50;;;;;;;16.43;68.57;98944.84;226591;1266;22567;-81
2024/04/06 07:07:03;;;;;;;3.50;1.80;;;;;;;16.50;68.38;98956.41;226734;1265;22587;-81
2024/04/06 07:12:09;;;;;;;2.90;1.60;;;;;;;16.56;68.02;98959.84;226470;1266;22635;-81
2024/04/06 07:17:11;;;;;;;2.30;1.70;;;;;;;16.69;67.92;98955.05;226634;1273;22577;-82
2024/04/06 07:22:12;;;;;;;2.10;1.50;;;;;;;16.85;67.22;98960.90;226501;1259;22547;-82
2024/04/06 07:27:14;;;;;;;3.00;1.50;;;;;;;17.02;66.71;98957.85;226625;1272;24205;-81
2024/04/06 07:32:17;;;;;;;2.90;1.40;;;;;;;17.16;66.32;98951.39;226785;1269;22535;-82
2024/04/06 07:37:18;;;;;;;2.70;1.10;;;;;;;17.29;65.98;98946.34;226663;1265;22554;-81
2024/04/06 07:42:20;;;;;;;2.80;1.10;;;;;;;17.57;65.74;98943.98;226689;1253;22676;-81
2024/04/06 07:47:25;;;;;;;1.90;0.90;;;;;;;17.91;64.84;98940.61;226705;1266;22528;-82
2024/04/06 07:52:28;;;;;;;1.70;1.00;;;;;;;18.21;63.59;98942.31;226460;1257;22513;-82
2024/04/06 07:57:30;;;;;;;1.60;0.80;;;;;;;18.35;61.55;98951.36;226516;1266;25239;-81
2024/04/06 08:02:32;;;;;;;2.10;0.80;;;;;;;18.40;60.52;98957.25;226644;1260;22667;-81
2024/04/06 08:07:35;;;;;;;1.30;0.70;;;;;;;18.53;60.15;98962.51;226722;1269;24379;-82
2024/04/06 08:12:36;;;;;;;1.60;0.60;;;;;;;18.67;59.63;98961.81;226694;1265;22745;-82
2024/04/06 08:17:45;;;;;;;4.70;1.00;;;;;;;18.82;59.35;98962.45;226669;1270;22528;-81
2024/04/06 08:22:47;;;;;;;2.60;0.80;;;;;;;18.98;58.60;98960.09;226818;1266;22577;-82
2024/04/06 08:27:48;;;;;;;1.80;1.10;;;;;;;19.17;58.51;98964.97;226699;1266;22576;-82
2024/04/06 08:32:57;;;;;;;1.80;1.00;;;;;;;19.36;58.33;98958.41;226828;1266;22583;-82
2024/04/06 08:38:04;;;;;;;2.20;1.00;;;;;;;19.43;58.11;98956.34;226679;1266;22549;-82
2024/04/06 08:43:11;;;;;;;2.30;1.00;;;;;;;19.52;58.26;98951.95;226662;1266;22581;-82
2024/04/06 08:48:14;;;;;;;2.40;1.00;;;;;;;19.72;58.22;98951.36;226707;1266;22641;-82
2024/04/06 08:53:16;;;;;;;1.30;1.00;;;;;;;19.92;57.88;98952.27;226755;1272;23372;-82
2024/04/06 08:58:18;;;;;;;2.50;1.20;;;;;;;19.97;57.49;98960.29;226771;1266;24971;-82
2024/04/06 09:03:20;;;;;;;4.10;1.30;;;;;;;19.93;57.15;98962.95;226798;1251;22552;-82
2024/04/06 09:08:22;;;;;;;3.60;1.40;;;;;;;19.94;56.99;98956.06;226667;1266;22485;-82
2024/04/06 09:13:28;;;;;;;2.60;1.40;;;;;;;19.97;57.06;98955.09;226607;1258;25915;-82
2024/04/06 09:18:32;;;;;;;1.70;1.00;;;;;;;20.03;57.58;98954.91;226742;1272;22545;-82
2024/04/06 09:23:36;;;;;;;1.20;0.80;;;;;;;20.12;56.77;98952.25;226673;1269;22554;-82
2024/04/06 09:28:39;;;;;;;4.20;1.10;;;;;;;20.18;56.74;98953.73;226662;1270;22535;-82
2024/04/06 09:33:41;;;;;;;1.80;1.00;;;;;;;20.31;56.64;98953.14;226628;1254;22546;-82
2024/04/06 09:38:44;;;;;;;3.30;0.80;;;;;;;20.38;56.58;98941.29;226726;1266;22606;-81
2024/04/06 09:43:54;;;;;;;1.60;1.00;;;;;;;20.40;56.30;98936.54;226709;1266;25336;-81
2024/04/06 09:48:56;;;;;;;1.50;0.90;;;;;;;20.49;56.18;98935.04;226570;1253;22557;-81
2024/04/06 09:53:58;;;;;;;1.80;1.00;;;;;;;20.64;56.21;98935.30;226720;1272;22832;-82
2024/04/06 09:59:00;;;;;;;1.20;0.90;;;;;;;20.84;55.60;98928.61;226787;1269;22995;-82
2024/04/06 10:04:01;;;;;;;2.90;1.40;;;;;;;20.98;55.50;98937.15;226746;1263;22581;-81
2024/04/06 10:09:09;;;;;;;2.10;1.80;;;;;;;21.19;55.29;98930.41;226482;1273;22657;-82
2024/04/06 10:14:11;;;;;;;2.30;1.40;;;;;;;21.52;55.17;98929.30;226574;1270;22562;-81
2024/04/06 10:19:17;;;;;;;1.70;1.40;;;;;;;21.83;55.02;98930.80;226637;1266;22582;-80
2024/04/06 10:24:19;;;;;;;3.60;1.50;;;;;;;22.14;54.59;98926.05;226721;1252;22628;-81
2024/04/06 10:29:22;;;;;;;2.10;1.60;;;;;;;22.47;55.17;98926.24;226802;1266;22538;-81
2024/04/06 10:34:25;;;;;;;2.80;1.50;;;;;;;22.76;53.94;98925.11;226761;1266;22546;-82
2024/04/06 10:39:34;;;;;;;2.30;1.50;;;;;;;22.81;53.36;98927.98;226482;1256;22555;-82
2024/04/06 10:44:36;;;;;;;3.10;1.60;;;;;;;22.88;53.08;98926.34;226648;1266;22542;-80
2024/04/06 10:49:38;;;;;;;1.90;1.50;;;;;;;22.83;52.76;98925.84;226595;1266;22540;-80
2024/04/06 10:54:40;;;;;;;3.40;1.50;;;;;;;22.75;52.62;98921.75;226652;1272;22545;-81
2024/04/06 10:59:41;;;;;;;2.50;1.50;;;;;;;22.61;52.13;98919.37;226548;1269;22999;-81
2024/04/06 11:04:43;;;;;;;2.30;1.60;;;;;;;22.57;52.49;98910.73;226396;1269;22598;-79
2024/04/06 11:09:45;;;;;;;2.60;1.60;;;;;;;22.67;51.91;98907.91;226439;1272;22610;-80
2024/04/06 11:14:50;;;;;;;3.00;1.30;;;;;;;22.64;52.09;98908.17;226243;1272;22540;-79
2024/04/06 11:19:53;;;;;;;3.20;1.20;;;;;;;22.60;51.71;98916.50;226436;1274;22548;-79
2024/04/06 11:24:56;;;;;;;0.90;0.90;;;;;;;22.70;52.23;98915.20;226737;1269;22587;-79
2024/04/06 11:29:58;;;;;;;1.60;1.30;;;;;;;22.82;51.81;98921.38;226624;1272;22528;-79
2024/04/06 11:35:05;;;;;;;1.00;0.90;;;;;;;22.73;51.19;98916.09;226852;1269;22612;-79
2024/04/06 11:40:07;;;;;;;1.60;1.00;;;;;;;22.47;51.04;98915.31;226732;1269;22531;-78
2024/04/06 11:45:09;;;;;;;1.30;1.20;;;;;;;22.32;51.46;98915.67;226733;1266;22538;-80
2024/04/06 11:50:11;;;;;;;1.70;1.30;;;;;;;22.31;51.91;98916.46;226864;1272;22617;-78
2024/04/06 11:55:13;;;;;;;1.50;1.00;;;;;;;22.48;51.80;98912.95;226830;1274;22551;-80
2024/04/06 12:00:15;;;;;;;3.70;2.10;;;;;;;22.44;51.25;98912.92;226679;1272;22542;-79
2024/04/06 12:05:20;;;;;;;1.20;1.00;;;;;;;22.41;51.89;98911.73;226811;1271;22574;-80
2024/04/06 12:10:22;;;;;;;2.00;1.10;;;;;;;22.51;52.03;98908.83;226775;1272;22582;-80
2024/04/06 12:15:24;;;;;;;1.90;1.10;;;;;;;22.61;52.08;98903.14;226801;1269;22554;-80
2024/04/06 12:20:26;;;;;;;1.60;1.20;;;;;;;22.59;52.07;98902.01;226812;1271;22648;-80
2024/04/06 12:25:28;;;;;;;1.40;1.10;;;;;;;22.46;52.24;98900.81;226765;1270;25403;-79
2024/04/06 12:30:30;;;;;;;2.00;1.30;;;;;;;22.38;52.39;98901.64;226628;1273;22610;-80
2024/04/06 12:35:31;;;;;;;1.20;1.00;;;;;;;22.24;52.73;98906.41;226894;1272;22600;-79
2024/04/06 12:40:33;;;;;;;3.50;1.40;;;;;;;22.17;53.01;98909.54;226865;1272;22549;-80
2024/04/06 12:45:35;;;;;;;1.90;1.20;;;;;;;22.05;52.98;98909.73;226832;1272;25520;-79
2024/04/06 12:50:37;;;;;;;1.30;1.10;;;;;;;21.87;53.29;98907.41;226852;1273;22542;-80
2024/04/06 12:55:39;;;;;;;1.90;1.20;;;;;;;21.82;53.82;98910.07;226840;1260;25279;-80
2024/04/06 13:00:41;;;;;;;1.70;1.40;;;;;;;21.79;54.06;98913.19;226870;1272;22579;-80
2024/04/06 13:05:42;;;;;;;1.50;1.30;;;;;;;21.68;54.20;98911.74;226733;1274;22576;-80
2024/04/06 13:10:44;;;;;;;1.60;1.30;;;;;;;21.63;54.52;98919.17;226763;1270;22576;-79
2024/04/06 13:15:47;;;;;;;2.60;1.30;;;;;;;21.55;54.32;98922.60;226627;1272;190181;-80
2024/04/06 13:20:50;;;;;;;2.40;1.40;;;;;;;21.46;54.60;98925.21;226857;1272;22622;-80
2024/04/06 13:25:52;;;;;;;1.70;1.20;;;;;;;21.35;54.92;98923.46;226762;1272;22539;-83
2024/04/06 13:30:55;;;;;;;3.40;1.20;;;;;;;21.42;55.14;98918.46;226629;1272;22539;-80
2024/04/06 13:35:57;;;;;;;1.80;1.10;;;;;;;21.64;55.14;98914.08;226712;1271;25384;-78
2024/04/06 13:40:59;;;;;;;1.90;1.20;;;;;;;21.95;55.04;98910.67;226793;1266;22575;-79
2024/04/06 13:46:01;;;;;;;2.00;1.60;;;;;;;22.23;55.03;98917.05;226689;1273;22727;-78
2024/04/06 13:51:03;;;;;;;2.10;1.60;;;;;;;22.41;54.45;98917.96;226771;1272;22558;-80
2024/04/06 13:56:05;;;;;;;3.60;1.60;;;;;;;22.47;54.44;98907.17;226717;1272;24775;-80
2024/04/06 14:01:06;;;;;;;3.60;2.20;;;;;;;22.53;54.37;98903.29;226733;1273;25391;-79
2024/04/06 14:06:08;;;;;;;2.00;1.70;;;;;;;22.55;54.21;98898.70;226890;1273;22532;-80
2024/04/06 14:11:11;;;;;;;3.70;1.90;;;;;;;22.50;54.17;98890.77;226758;1272;22560;-80
2024/04/06 14:16:13;;;;;;;2.00;1.70;;;;;;;22.39;53.86;98884.79;226736;1270;22550;-80
2024/04/06 14:21:15;;;;;;;1.40;1.30;;;;;;;22.30;54.09;98884.84;226827;1272;22559;-80
2024/04/06 14:26:17;;;;;;;1.40;1.20;;;;;;;22.25;54.13;98885.48;226838;1272;23270;-80
2024/04/06 14:31:19;;;;;;;1.50;1.40;;;;;;;22.25;54.08;98890.27;226758;1273;22531;-80
2024/04/06 14:36:21;;;;;;;2.20;1.50;;;;;;;22.21;54.31;98895.52;226764;1272;22537;-80
2024/04/06 14:41:24;;;;;;;3.90;1.40;;;;;;;22.08;54.74;98896.85;226837;1272;25256;-80
2024/04/06 14:46:26;;;;;;;1.80;1.30;;;;;;;22.04;54.81;98893.80;226770;1272;22583;-80
2024/04/06 14:51:28;;;;;;;1.80;1.20;;;;;;;22.04;54.71;98893.96;226733;1270;22573;-80
2024/04/06 14:56:30;;;;;;;3.10;1.10;;;;;;;22.12;54.99;98892.17;226831;1266;22563;-80
2024/04/06 15:01:32;;;;;;;1.70;1.20;;;;;;;22.14;54.57;98897.03;226776;1273;22523;-80
2024/04/06 15:06:34;;;;;;;2.40;1.20;;;;;;;22.05;54.27;98893.65;226790;1274;22549;-80
2024/04/06 15:11:36;;;;;;;1.50;1.10;;;;;;;21.94;54.51;98892.52;226906;1272;22551;-79
2024/04/06 15:16:38;;;;;;;2.70;1.60;;;;;;;21.79;54.86;98896.17;226728;1273;22732;-79
2024/04/06 15:21:40;;;;;;;2.30;1.60;;;;;;;21.67;55.20;98901.79;226669;1273;22564;-79
2024/04/06 15:26:42;;;;;;;3.80;1.60;;;;;;;21.62;55.50;98911.27;226794;1274;22542;-79
2024/04/06 15:31:44;;;;;;;2.40;1.50;;;;;;;21.58;55.57;98906.27;226797;1273;22549;-79
2024/04/06 15:36:45;;;;;;;2.80;1.40;;;;;;;21.50;55.64;98908.27;226827;1271;25870;-80
2024/04/06 15:41:48;;;;;;;2.30;1.60;;;;;;;21.44;55.81;98917.50;226820;1272;22602;-79
2024/04/06 15:46:51;;;;;;;2.60;1.60;;;;;;;21.36;56.12;98921.64;226802;1273;24225;-80
2024/04/06 15:51:52;;;;;;;3.80;1.20;;;;;;;21.29;56.44;98916.89;226778;1270;22554;-80
2024/04/06 15:56:55;;;;;;;2.30;1.10;;;;;;;21.21;56.41;98910.73;226790;1270;26003;-80
2024/04/06 16:01:58;;;;;;;1.60;1.30;;;;;;;21.06;56.21;98907.52;226724;1271;22562;-78
2024/04/06 16:07:00;;;;;;;1.20;1.10;;;;;;;20.90;56.43;98923.64;226708;1272;22570;-79
2024/04/06 16:12:02;;;;;;;2.10;1.30;;;;;;;20.75;56.84;98926.04;226793;1272;23028;-79
2024/04/06 16:17:04;;;;;;;1.30;1.10;;;;;;;20.59;57.06;98927.92;226771;1272;22616;-80
2024/04/06 16:22:07;;;;;;;2.50;1.20;;;;;;;20.38;57.12;98929.41;226746;1270;22546;-80
2024/04/06 16:27:09;;;;;;;1.80;1.20;;;;;;;20.17;57.57;98929.04;226714;1272;22645;-79
2024/04/06 16:32:11;;;;;;;2.30;1.30;;;;;;;19.95;58.02;98923.30;226850;1272;22543;-79
2024/04/06 16:37:13;;;;;;;1.20;1.10;;;;;;;19.77;58.46;98922.96;226705;1273;23284;-79
2024/04/06 16:42:14;;;;;;;2.20;1.30;;;;;;;19.59;58.67;98923.39;226748;1273;22556;-79
2024/04/06 16:47:16;;;;;;;3.10;1.80;;;;;;;19.40;59.11;98933.67;226690;1272;22576;-80
2024/04/06 16:52:18;;;;;;;3.80;2.00;;;;;;;19.21;59.42;98932.73;226812;1273;23253;-80
2024/04/06 16:57:20;;;;;;;3.40;2.10;;;;;;;19.03;59.77;98933.21;226854;1273;22543;-79
2024/04/06 17:02:22;;;;;;;3.00;1.70;;;;;;;18.85;60.06;98934.82;226770;1272;22566;-79
2024/04/06 17:07:25;;;;;;;2.80;2.00;;;;;;;18.66;60.52;98931.55;226852;1273;23838;-79
2024/04/06 17:12:28;;;;;;;3.20;2.20;;;;;;;18.46;61.08;98931.73;226703;1273;22531;-79
2024/04/06 17:17:30;;;;;;;4.40;1.90;;;;;;;18.25;61.30;98937.33;226745;1272;22556;-79
2024/04/06 17:22:33;;;;;;;4.60;2.20;;;;;;;18.05;61.48;98940.67;226893;1275;22561;-79
2024/04/06 17:27:35;;;;;;;2.70;2.20;;;;;;;17.84;61.88;98936.66;226837;1274;22647;-78
2024/04/06 17:32:37;;;;;;;4.20;2.80;;;;;;;17.63;62.48;98944.79;226827;1273;22528;-79
2024/04/06 17:37:39;;;;;;;4.60;3.40;;;;;;;17.41;62.89;98947.46;226899;1273;22538;-79
2024/04/06 17:42:42;;;;;;;6.50;4.00;;;;;;;17.19;63.46;98946.40;226725;1269;22531;-78
2024/04/06 17:47:45;;;;;;;8.60;5.80;;;;;;;17.00;63.64;98942.73;226785;1274;22549;-79
2024/04/06 17:52:47;;;;;;;10.70;8.10;;;;;;;16.81;64.35;98947.39;226884;1274;22571;-79
2024/04/06 17:57:48;;;;;;;10.60;7.50;;;;;;;16.64;64.61;98955.67;226897;1273;22552;-79
2024/04/06 18:02:51;;;;;;;9.00;7.40;;;;;;;16.46;65.13;98963.10;226922;1273;25355;-80
2024/04/06 18:07:53;;;;;;;11.00;7.60;;;;;;;16.32;65.69;98969.38;226729;1270;22566;-78
2024/04/06 18:12:54;;;;;;;10.40;7.30;;;;;;;16.16;65.80;98970.17;226848;1274;22545;-79
2024/04/06 18:17:56;;;;;;;12.70;4.90;;;;;;;16.02;66.01;98961.07;226837;1273;22547;-79
2024/04/06 18:22:58;;;;;;;9.10;5.50;;;;;;;15.89;66.66;98967.38;226723;1273;22561;-79
2024/04/06 18:28:01;;;;;;;9.10;5.60;;;;;;;15.77;66.65;98967.64;226771;1271;22920;-79
2024/04/06 18:33:03;;;;;;;8.00;5.30;;;;;;;15.67;66.94;98972.09;226740;1270;22586;-79
2024/04/06 18:38:05;;;;;;;7.60;4.90;;;;;;;15.58;67.10;98977.97;226845;1270;22536;-79
2024/04/06 18:43:08;;;;;;;11.30;6.70;;;;;;;15.49;67.57;98976.48;226823;1273;22535;-79
2024/04/06 18:48:10;;;;;;;11.70;8.40;;;;;;;15.40;67.82;98977.03;226760;1273;23648;-79
2024/04/06 18:53:13;;;;;;;9.70;8.50;;;;;;;15.31;68.23;98982.23;226816;1273;22548;-79
2024/04/06 18:58:16;;;;;;;13.10;9.30;;;;;;;15.19;68.46;98985.49;226773;1273;22522;-79
2024/04/06 19:03:18;;;;;;;12.60;9.60;;;;;;;15.09;68.98;98989.20;226824;1266;22555;-79
2024/04/06 19:08:19;;;;;;;20.20;13.00;;;;;;;14.99;69.19;98993.29;226792;1273;22558;-79
2024/04/06 19:13:21;;;;;;;21.80;14.70;;;;;;;14.89;69.56;98996.84;226895;1273;22595;-78
2024/04/06 19:18:23;;;;;;;32.80;16.80;;;;;;;14.80;69.79;98995.05;226837;1267;22550;-79
2024/04/06 19:23:25;;;;;;;20.10;13.70;;;;;;;14.72;70.12;98993.50;226905;1273;22555;-79
2024/04/06 19:28:27;;;;;;;19.20;14.20;;;;;;;14.64;70.06;98994.23;226957;1274;22561;-78
2024/04/06 19:33:29;;;;;;;18.60;14.20;;;;;;;14.57;70.61;98990.76;226737;1271;22535;-79
2024/04/06 19:38:32;;;;;;;15.10;12.90;;;;;;;14.50;70.63;99002.31;226967;1270;22547;-79
2024/04/06 19:43:34;;;;;;;17.00;12.90;;;;;;;14.43;71.11;99005.96;227024;1273;22534;-79
2024/04/06 19:48:36;;;;;;;16.20;12.10;;;;;;;14.37;71.23;99010.24;226898;1269;22549;-79
2024/04/06 19:53:38;;;;;;;20.80;13.70;;;;;;;14.31;71.23;99013.68;226903;1273;22558;-79
2024/04/06 19:58:40;;;;;;;19.00;14.50;;;;;;;14.25;71.28;99018.02;226884;1266;22638;-78
2024/04/06 20:03:41;;;;;;;17.30;13.90;;;;;;;14.22;71.63;99020.69;226743;1267;22548;-78
2024/04/06 20:09:00;;;;;;;19.80;14.20;;;;;;;14.17;71.93;99023.71;226743;1270;22563;-79
2024/04/06 20:14:03;;;;;;;21.40;14.00;;;;;;;14.13;71.93;99017.20;226927;1273;24786;-77
2024/04/06 20:19:06;;;;;;;23.40;16.20;;;;;;;14.10;72.24;99007.69;226700;1269;22562;-79
2024/04/06 20:29:28;;;;;;;26.50;18.70;;;;;;;14.02;72.35;98997.80;226795;1270;25526;-78
2024/04/06 20:34:30;;;;;;;27.70;19.40;;;;;;;13.96;72.58;99001.05;226799;1272;22768;-78
2024/04/06 20:39:32;;;;;;;25.50;19.40;;;;;;;13.90;72.82;99000.20;226703;1270;22556;-79
2024/04/06 20:44:34;;;;;;;24.90;18.20;;;;;;;13.82;72.80;99005.79;226715;1271;22542;-79
2024/04/06 20:49:37;;;;;;;26.30;20.30;;;;;;;13.74;73.23;99008.04;226796;1261;22551;-80
2024/04/06 20:54:39;;;;;;;33.00;22.90;;;;;;;13.67;73.11;99014.44;226905;1271;22572;-79
2024/04/06 20:59:41;;;;;;;34.40;26.50;;;;;;;13.61;73.58;99015.62;226735;1270;22567;-79
2024/04/06 21:04:43;;;;;;;39.20;30.80;;;;;;;13.55;73.47;99010.48;226825;1273;22563;-79
2024/04/06 21:09:46;;;;;;;33.40;25.40;;;;;;;13.49;73.64;99014.86;226895;1273;22599;-79
2024/04/06 21:14:47;;;;;;;34.70;26.10;;;;;;;13.41;74.06;99023.57;226788;1266;23013;-80
2024/04/06 21:19:49;;;;;;;33.70;24.20;;;;;;;13.31;74.44;99024.13;226872;1268;22571;-81
2024/04/06 21:24:51;;;;;;;33.60;24.70;;;;;;;13.25;74.44;99030.45;226815;1272;22545;-79
2024/04/06 21:29:53;;;;;;;42.90;30.80;;;;;;;13.20;74.95;99040.02;226832;1261;22538;-79
2024/04/06 21:34:54;;;;;;;50.20;33.70;;;;;;;13.14;75.03;99046.07;226850;1270;22539;-79
2024/04/06 21:39:56;;;;;;;55.70;36.40;;;;;;;13.09;75.08;99049.50;226852;1269;22653;-79
2024/04/06 21:44:58;;;;;;;56.70;36.40;;;;;;;13.04;75.48;99055.38;226812;1270;23823;-78
2024/04/06 21:50:00;;;;;;;54.80;36.70;;;;;;;13.00;75.49;99053.27;226793;1271;22555;-79
2024/04/06 21:55:02;;;;;;;51.20;35.60;;;;;;;12.96;75.53;99055.48;226900;1273;22554;-78
2024/04/06 22:00:06;;;;;;;46.00;32.20;;;;;;;12.91;75.82;99053.46;226747;1269;25123;-79
2024/04/06 22:05:08;;;;;;;44.40;31.80;;;;;;;12.87;75.81;99051.16;226854;1273;22545;-79
2024/04/06 22:10:10;;;;;;;39.50;29.50;;;;;;;12.83;75.96;99062.55;226923;1273;22535;-79
2024/04/06 22:15:12;;;;;;;42.70;28.70;;;;;;;12.79;76.11;99062.60;226944;1270;26017;-79
2024/04/06 22:20:14;;;;;;;38.80;28.50;;;;;;;12.73;76.17;99066.14;226956;1267;25261;-78
2024/04/06 22:25:15;;;;;;;43.30;29.80;;;;;;;12.66;76.43;99070.00;226884;1270;22529;-78
2024/04/06 22:30:17;;;;;;;41.00;30.60;;;;;;;12.61;76.58;99073.31;226891;1273;22767;-78
2024/04/06 22:35:19;;;;;;;39.30;29.80;;;;;;;12.56;76.71;99069.69;226893;1269;22555;-79
2024/04/06 22:40:21;;;;;;;37.50;28.60;;;;;;;12.52;76.74;99072.51;226899;1267;22699;-78
2024/04/06 22:45:23;;;;;;;39.80;29.40;;;;;;;12.48;76.81;99071.98;226929;1269;22589;-79
2024/04/06 22:50:25;;;;;;;32.70;26.00;;;;;;;12.44;77.18;99066.31;226926;1273;22542;-79
2024/04/06 22:55:27;;;;;;;38.70;28.10;;;;;;;12.40;77.04;99064.73;226890;1273;22655;-79
2024/04/06 23:00:29;;;;;;;36.80;28.30;;;;;;;12.35;77.05;99072.73;226904;1273;23434;-78
2024/04/06 23:05:30;;;;;;;36.80;28.10;;;;;;;12.29;77.01;99064.70;226928;1272;22608;-78
2024/04/06 23:10:32;;;;;;;36.60;26.80;;;;;;;12.21;77.40;99063.94;226976;1273;22539;-78
2024/04/06 23:15:34;;;;;;;40.50;29.30;;;;;;;12.11;77.64;99049.85;226932;1273;22561;-80
2024/04/06 23:20:36;;;;;;;41.30;29.30;;;;;;;12.00;77.80;99046.78;226842;1269;22555;-78
2024/04/06 23:25:38;;;;;;;40.00;29.60;;;;;;;11.90;77.76;99055.09;227015;1273;22546;-78